• Join FlightAware (Why Join?)
  • Login
  • US Flag 
06:05AM EDT


 

Airport Tracker/Info


-or-


 

Live Flight TrackerFlight Track Log ✈ EJA583 ✈ 12-Sep-2013 ✈ KSMO - KDAL

Flight Track Log - Related Links

Times and Time Zones

All times are in EDT time to prevent confusion due to time zone crossing. See the EJA583 flight status page for this flight to view local times or setup timezone preferences in your user account.

Time Position Orientation Groundspeed Altitude Reporting Facility
EDT Latitude Longitude Course Direction KTS MPH feet Rate Location/Type
08:17PM 34.0000 -118.4667 254° West 201 231 900  Level Southern California TRACON
08:18PM 33.9775 -118.5619 254° West 214 246 3,800 1,920 Climbing Los Angeles Center
08:19PM 33.9133 -118.5731 188° South 255 293 5,600 2,040 Climbing Los Angeles Center
08:20PM 33.8303 -118.5528 169° South 282 325 8,100 2,160 Climbing Los Angeles Center
08:21PM 33.7511 -118.5339 169° South 293 337 10,100 1,500 Climbing Los Angeles Center
08:22PM 33.6875 -118.4672 139° Southeast 330 380 11,300 1,500 Climbing Los Angeles Center
08:23PM 33.6825 -118.3333 93° East 343 395 13,200 1,800 Climbing Los Angeles Center
08:24PM 33.6811 -118.2228 91° East 342 394 15,100 1,860 Climbing Los Angeles Center
08:26PM 33.6797 -118.1133 91° East 335 386 17,100 1,980 Climbing Los Angeles Center
08:27PM 33.6778 -118.0014 91° East 336 387 19,200 1,680 Climbing Los Angeles Center
08:28PM 33.6753 -117.8858 91° East 344 396 20,600 1,500 Climbing Los Angeles Center
08:29PM 33.6728 -117.7408 91° East 363 418 22,400 1,560 Climbing Los Angeles Center
08:30PM 33.6686 -117.6175 92° East 369 425 23,900 1,440 Climbing Los Angeles Center
08:31PM 33.6672 -117.4925 91° East 375 432 25,400 1,440 Climbing Los Angeles Center
08:32PM 33.6633 -117.3669 92° East 377 434 26,900 1,260 Climbing Los Angeles Center
08:33PM 33.6600 -117.2406 92° East 380 437 28,100 1,140 Climbing Los Angeles Center
08:34PM 33.6508 -117.0828 94° East 397 457 29,300 1,020 Climbing Los Angeles Center
08:35PM 33.6356 -116.9461 98° East 411 473 30,300 960 Climbing Los Angeles Center
08:36PM 33.6211 -116.8214 98° East 413 475 31,400 1,200 Climbing Los Angeles Center
08:37PM 33.6064 -116.6872 97° East 408 470 32,800 1,380 Climbing Los Angeles Center
08:38PM 33.5872 -116.5236 98° East 411 473 34,300 1,200 Climbing Los Angeles Center
08:39PM 33.5719 -116.3894 98° East 407 468 35,400 960 Climbing Los Angeles Center
08:40PM 33.5558 -116.2533 98° East 410 472 36,400 960 Climbing Los Angeles Center
08:41PM 33.5394 -116.1133 98° East 420 483 37,500 960 Climbing Los Angeles Center
08:42PM 33.5219 -115.9764 99° East 415 478 38,500 960 Climbing Los Angeles Center
08:43PM 33.5056 -115.8408 98° East 413 475 39,500 960 Climbing Los Angeles Center
08:44PM 33.4892 -115.7058 98° East 409 471 40,500 720 Climbing Los Angeles Center
08:45PM 33.4692 -115.5467 99° East 403 464 41,000 240 Climbing Los Angeles Center
08:46PM 33.4517 -115.4086 99° East 417 480 41,000  Level Los Angeles Center
08:47PM 33.4339 -115.2644 98° East 434 499 41,000  Level Los Angeles Center
08:48PM 33.4150 -115.1194 99° East 440 506 41,000  Level Los Angeles Center
08:49PM 33.3947 -114.9742 99° East 442 509 41,000  Level Los Angeles Center
08:50PM 33.3772 -114.8253 98° East 452 520 41,000  Level Los Angeles Center
08:51PM 33.3542 -114.6506 99° East 446 513 41,000  Level Los Angeles Center
08:52PM 33.3358 -114.5047 99° East 444 511 41,000  Level Los Angeles Center
08:53PM 33.3164 -114.3597 99° East 444 511 41,000  Level Los Angeles Center
08:55PM 33.2958 -114.2161 100° East 440 506 41,000  Level Los Angeles Center
08:55PM 33.2797 -114.0803 98° East 442 509 41,000  Level Albuquerque Center
08:56PM 33.2600 -113.9361 99° East 441 507 41,000  Level Albuquerque Center
08:57PM 33.2403 -113.7906 99° East 443 510 41,000  Level Albuquerque Center
08:58PM 33.2189 -113.6456 100° East 444 511 41,000  Level Albuquerque Center
09:00PM 33.1983 -113.4994 100° East 446 513 41,000  Level Albuquerque Center
09:01PM 33.1789 -113.3533 99° East 445 512 41,000  Level Albuquerque Center
09:02PM 33.1567 -113.2069 100° East 446 513 41,000  Level Albuquerque Center
09:03PM 33.1314 -113.0308 100° East 447 514 41,000  Level Albuquerque Center
09:04PM 33.1100 -112.8844 100° East 447 514 41,000  Level Albuquerque Center
09:05PM 33.0883 -112.7378 100° East 447 514 41,000  Level Albuquerque Center
09:06PM 33.0661 -112.5911 100° East 448 516 41,000  Level Albuquerque Center
09:07PM 33.0439 -112.4475 100° East 443 510 41,000  Level Albuquerque Center
09:08PM 33.0217 -112.3036 100° East 441 507 41,000  Level Albuquerque Center
09:09PM 32.9983 -112.1497 100° East 443 510 41,000  Level Albuquerque Center
09:10PM 32.9767 -112.0058 100° East 444 511 41,000  Level Albuquerque Center
09:11PM 32.9550 -111.8611 100° East 446 513 41,000  Level Albuquerque Center
09:12PM 32.9328 -111.7172 100° East 446 513 41,000  Level Albuquerque Center
09:13PM 32.9058 -111.5444 100° East 445 512 41,100  Climbing Albuquerque Center
09:14PM 32.8831 -111.4014 101° East 443 510 41,000 -60 Descending Albuquerque Center
09:15PM 32.8611 -111.2597 100° East 441 507 41,000  Level Albuquerque Center
09:16PM 32.8375 -111.1172 101° East 440 506 41,000  Level Albuquerque Center
09:17PM 32.8142 -110.9764 101° East 437 503 41,000  Level Albuquerque Center
09:18PM 32.7919 -110.8356 101° East 437 503 41,000  Level Albuquerque Center
09:19PM 32.7633 -110.6681 101° East 433 498 41,000  Level Albuquerque Center
09:20PM 32.7433 -110.5428 101° East 435 501 41,000  Level Albuquerque Center
09:21PM 32.7194 -110.4019 101° East 436 502 41,000  Level Albuquerque Center
09:22PM 32.6906 -110.2339 102° East 435 501 41,000  Level Albuquerque Center
09:23PM 32.6678 -110.0939 101° East 435 501 41,000  Level Albuquerque Center
09:24PM 32.6436 -109.9539 102° East 435 501 41,000  Level Albuquerque Center
09:25PM 32.6183 -109.8131 102° East 437 503 41,000  Level Albuquerque Center
09:26PM 32.5933 -109.6728 102° East 439 505 41,000  Level Albuquerque Center
09:27PM 32.5672 -109.5311 102° East 443 510 41,000  Level Albuquerque Center
09:28PM 32.5425 -109.3911 102° East 441 507 41,000  Level Albuquerque Center
09:29PM 32.5133 -109.2253 102° East 435 501 41,000  Level Albuquerque Center
09:30PM 32.4997 -109.0847 97° East 437 503 41,000  Level Albuquerque Center
09:31PM 32.4872 -108.9422 96° East 440 506 41,000  Level Albuquerque Center
09:32PM 32.4744 -108.7994 96° East 440 506 41,000  Level Albuquerque Center
09:33PM 32.4631 -108.6569 95° East 439 505 41,000  Level Albuquerque Center
09:34PM 32.4478 -108.4853 96° East 440 506 41,000  Level Albuquerque Center
09:35PM 32.4347 -108.3372 96° East 440 506 41,000  Level Albuquerque Center
09:37PM 32.4214 -108.1944 96° East 439 505 41,000  Level Albuquerque Center
09:38PM 32.4089 -108.0517 96° East 438 504 41,000  Level Albuquerque Center
09:39PM 32.3950 -107.9094 97° East 437 503 41,000  Level Albuquerque Center
09:40PM 32.3814 -107.7675 96° East 437 503 41,000  Level Albuquerque Center
09:41PM 32.3686 -107.6250 96° East 437 503 41,000  Level Albuquerque Center
09:42PM 32.3536 -107.4608 96° East 434 499 41,000  Level Albuquerque Center
09:43PM 32.3394 -107.3181 97° East 437 503 41,000  Level Albuquerque Center
09:44PM 32.3269 -107.1636 95° East 436 502 41,000  Level Albuquerque Center
09:45PM 32.3125 -107.0217 97° East 435 501 41,000  Level Albuquerque Center
09:46PM 32.2978 -106.8786 97° East 438 504 41,000  Level Albuquerque Center
09:47PM 32.2858 -106.7517 96° East 442 509 41,000  Level Albuquerque Center
09:48PM 32.2675 -106.5828 97° East 435 501 41,000  Level Albuquerque Center
09:49PM 32.2528 -106.4425 97° East 433 498 41,000  Level Albuquerque Center
09:50PM 32.2383 -106.3017 97° East 434 499 41,000  Level Albuquerque Center
09:51PM 32.2217 -106.1544 98° East 434 499 41,000  Level Albuquerque Center
09:52PM 32.2056 -106.0144 98° East 431 496 41,000  Level Albuquerque Center
09:53PM 32.1906 -105.8731 97° East 433 498 41,000  Level Albuquerque Center
09:54PM 32.1758 -105.7336 97° East 430 495 41,000  Level Albuquerque Center
09:55PM 32.1594 -105.5925 98° East 433 498 41,000  Level Albuquerque Center
09:56PM 32.1433 -105.4514 98° East 434 499 41,000  Level Albuquerque Center
09:57PM 32.1275 -105.3094 97° East 436 502 41,000  Level Albuquerque Center
09:58PM 32.1114 -105.1689 98° East 434 499 41,000  Level Albuquerque Center
09:59PM 32.0922 -104.9961 97° East 437 503 41,000  Level Albuquerque Center
10:00PM 32.0756 -104.8528 98° East 439 505 41,000  Level Albuquerque Center
10:01PM 32.0578 -104.7094 98° East 440 506 41,000  Level Albuquerque Center
10:02PM 32.0411 -104.5664 98° East 441 507 41,000  Level Albuquerque Center
10:03PM 32.0247 -104.4244 98° East 439 505 41,000  Level Albuquerque Center
10:04PM 32.0067 -104.2828 99° East 437 503 41,000  Level Albuquerque Center
10:05PM 31.9897 -104.1475 98° East 426 490 41,000  Level Albuquerque Center
10:06PM 31.9736 -104.0106 98° East 415 478 41,000  Level Albuquerque Center
10:07PM 31.9572 -103.8794 98° East 410 472 41,000  Level Albuquerque Center
10:08PM 31.9408 -103.7511 99° East 403 464 41,000  Level Albuquerque Center
10:09PM 31.9222 -103.5978 98° East 398 458 41,000  Level Albuquerque Center
10:10PM 31.9050 -103.4683 99° East 400 460 41,000  Level Albuquerque Center
10:11PM 31.8872 -103.3372 99° East 405 466 41,000  Level Albuquerque Center
10:12PM 31.8783 -103.2067 95° East 402 463 41,000  Level Albuquerque Center
10:13PM 31.8944 -103.0786 82° East 399 459 41,000  Level Albuquerque Center
10:14PM 31.9086 -102.9489 83° East 400 460 41,000  Level Albuquerque Center
10:15PM 31.9247 -102.8183 82° East 399 459 41,000  Level Albuquerque Center
10:17PM 31.9447 -102.6594 82° East 403 464 41,000  Level Albuquerque Center
10:18PM 31.9578 -102.5283 83° East 405 466 41,000  Level Albuquerque Center
10:19PM 31.9719 -102.4003 83° East 406 467 41,000  Level Albuquerque Center
10:20PM 31.9931 -102.2458 81° East 404 465 41,000  Level Fort Worth Center
10:21PM 32.0086 -102.1119 82° East 404 465 41,000  Level Fort Worth Center
10:22PM 32.0217 -101.9806 83° East 404 465 41,000  Level Fort Worth Center
10:23PM 32.0369 -101.8489 82° East 404 465 41,000  Level Fort Worth Center
10:24PM 32.0492 -101.7319 83° East 404 465 41,000  Level Fort Worth Center
10:25PM 32.0642 -101.6028 82° East 404 465 41,000  Level Fort Worth Center
10:26PM 32.0769 -101.4683 84° East 404 465 41,000  Level Fort Worth Center
10:27PM 32.0894 -101.3367 84° East 404 465 41,000  Level Fort Worth Center
10:28PM 32.1058 -101.2072 81° East 404 465 41,000  Level Fort Worth Center
10:29PM 32.1161 -101.0753 85° East 404 465 41,000  Level Fort Worth Center
10:30PM 32.1258 -100.9481 85° East 404 465 41,000  Level Fort Worth Center
10:31PM 32.1378 -100.8186 84° East 397 457 41,000  Level Fort Worth Center
10:32PM 32.1497 -100.6892 84° East 397 457 41,000  Level Fort Worth Center
10:33PM 32.1636 -100.5569 83° East 397 457 41,000  Level Fort Worth Center
10:34PM 32.1750 -100.4297 84° East 397 457 41,000  Level Fort Worth Center
10:35PM 32.1883 -100.3003 83° East 397 457 41,000  Level Fort Worth Center
10:36PM 32.1997 -100.1656 84° East 402 463 41,000  Level Fort Worth Center
10:37PM 32.2131 -100.0358 83° East 402 463 41,000  Level Fort Worth Center
10:38PM 32.2219 -99.9058 85° East 402 463 41,000  Level Fort Worth Center
10:39PM 32.2308 -99.7736 85° East 402 463 41,000  Level Fort Worth Center
10:40PM 32.2269 -99.6408 92° East 402 463 41,000  Level Fort Worth Center
10:41PM 32.2231 -99.5056 92° East 402 463 41,000  Level Fort Worth Center
10:42PM 32.2250 -99.3781 89° East 402 463 41,000 -720 Level Fort Worth Center
10:43PM 32.2436 -99.2483 80° East 397 457 39,600 -1,800 Descending Fort Worth Center
10:44PM 32.2622 -99.1183 80° East 402 463 37,400 -2,160 Descending Fort Worth Center
10:45PM 32.2808 -98.9836 81° East 412 474 35,300 -2,100 Descending Fort Worth Center
10:46PM 32.2969 -98.8536 82° East 407 468 33,200 -2,100 Descending Fort Worth Center
10:47PM 32.3128 -98.7408 81° East 378 435 31,200 -2,040 Descending Fort Worth Center
10:48PM 32.3328 -98.6158 79° East 372 428 29,200 -2,160 Descending Fort Worth Center
10:49PM 32.3486 -98.4783 82° East 394 453 26,900 -2,520 Descending Fort Worth Center
10:50PM 32.3686 -98.3233 81° East 422 486 24,200 -2,400 Descending Fort Worth Center
10:51PM 32.3842 -98.1981 82° East 428 493 22,200 -2,280 Descending Fort Worth Center
10:52PM 32.4017 -98.0508 82° East 422 486 19,700 -2,280 Descending Fort Worth Center
10:53PM 32.4169 -97.9350 81° East 405 466 17,700 -2,100 Descending Fort Worth Center
10:54PM 32.4339 -97.8022 81° East 379 436 15,600 -1,800 Descending Fort Worth Center
10:55PM 32.4489 -97.6989 80° East 364 419 14,100 -1,440 Descending Fort Worth Center
10:56PM 32.5056 -97.5933 58° Northeast 344 396 12,800 -1,320 Descending Fort Worth Center
10:57PM 32.5536 -97.5119 55° Northeast 338 389 11,500 -900 Descending Fort Worth Center
10:58PM 32.6100 -97.4133 56° Northeast 327 376 11,000 -300 Descending Fort Worth Center
10:59PM 32.6558 -97.3294 57° Northeast 327 376 11,000  Level Fort Worth Center
11:00PM 32.7122 -97.2308 56° Northeast 332 382 11,000  Level Fort Worth Center
11:01PM 32.7767 -97.1761 36° Northeast 282 325 11,000 -720 Level Fort Worth Center
11:02PM 32.8478 -97.1761 360° North 241 277 9,600 -1,500 Descending Fort Worth Center
11:02PM 32.9000 -97.1500 23° Northeast 232 267 8,400 -1,920 Descending Dallas / Fort Worth TRACON
11:03PM 32.9167 -97.1000 68° East 235 270 6,700 -2,400 Descending Dallas / Fort Worth TRACON
11:04PM 32.9333 -97.0167 77° East 231 266 3,900 -2,280 Descending Dallas / Fort Worth TRACON
11:05PM 32.9333 -96.9500 90° East 219 252 2,000 -1,200 Descending Dallas / Fort Worth TRACON
11:06PM 32.9000 -96.9000 128° Southeast 141 162 1,500 -600 Descending Dallas / Fort Worth TRACON
11:07PM 32.8667 -96.8667 140° Southeast 123 142 900 -720 Descending Dallas / Fort Worth TRACON
11:09PM 32.8471 -96.8518 73° East  Level Estimated
11:16PM 32.8471 -96.8518 73° East  Level Estimated
11:17PM 32.8471 -96.8518 73° East  Level Estimated